Terminal Aerodrome Forecast
Issued by NWS Missoula, MT

Home | Current Version | Previous Version | Text Only | Print | Product List | Glossary On
Versions: 1 2 3 4 5 6 7 8 9 10 11 12 13 14 15 16 17 18 19
000
FTUS45 KMSO 180000 AAA
TAFGPI
TAF AMD
KGPI 180012Z 1800/1824 16008KT P6SM -RA BKN020 OVC040
     FM180600 18007KT P6SM -RA BKN015 OVC030
     FM181200 19013KT P6SM VCSH BKN040
     FM181700 20020G30KT P6SM BKN050 OVC070=

USA.gov is the U.S. government's official web portal to all federal, state and local government web resources and services.